< < Back
Terminal Aerodrome Forecast


Current Version              Previous Versions:   1  2  3  4  5  6  7  8  9  

Terminal Aerodrome Forecast

751
FTUS44 KOHX 052302 AAG
TAFCSV
TAF AMD
KCSV 052302Z 0523/0618 27009KT P6SM VCSH FEW030 SCT120
     FM060600 00000KT 4SM BR SKC
     FM060900 00000KT 1SM BR SKC
      TEMPO 0610/0614 1/2SM FG
     FM061400 25003KT 3SM BR SKC
     FM061500 22006KT P6SM SCT050=

Latest METAR

615
SAUS70 KWBC 050700 RRL
MTRCSV
METAR KCSV 050653Z AUTO 18003KT 8SM -RA FEW050 SCT080 OVC100 20/18 A3007
RMK AO2 SLP163 P0008 T02000183


USA.gov is the U.S. government's official web portal to all federal, state and local government web resources and services.